• Join FlightAware (Why Join?)
  • Login
  • US Flag 
 
02:03AM EST


 

Airport Tracker/Info


-or-


 

Live Flight TrackerFlight Track Log ✈ EGF3994 ✈ 31-May-2013 ✈ KORD - KDAY

Flight Track Log - Related Links

Times and Time Zones

All times are in EDT time to prevent confusion due to time zone crossing. See the EGF3994 flight status page for this flight to view local times or setup timezone preferences in your user account.

Time Position Orientation Groundspeed Altitude Reporting Facility
EDT Latitude Longitude Course Direction KTS MPH feet Rate Location/Type
07:47PM 41.9333 -87.8833 90° East 184 212 2,200  Level Chicago TRACON
07:47PM 41.9167 -87.8167 109° East 224 258 4,100 1,380 Climbing Chicago TRACON
07:49PM 41.9614 -87.4805 98° East  Level FlightAware Approximate
07:49PM 41.8833 -87.7167 114° Southeast 274 315 5,000  Level Chicago TRACON
07:49PM 41.9125 -87.6408 63° Northeast 275 316 5,100 1,500 Climbing Chicago Center
07:50PM 41.9482 -87.3416 95° East  Level FlightAware Approximate
07:51PM 41.9383 -87.2023 95° East  Level FlightAware Approximate
07:51PM 41.9644 -87.5236 59° Northeast 303 349 8,000  Level Chicago Center
07:52PM 41.9333 -87.0802 90° East  Level FlightAware Approximate
07:52PM 41.9594 -87.4058 93° East 309 356 10,300  Level Chicago Center
07:53PM 41.9553 -87.2889 93° East 313 360 12,100 1,500 Climbing Chicago Center
07:54PM 41.9503 -87.1594 93° East 336 387 13,500 1,380 Climbing Chicago Center
07:55PM 41.9564 -87.0186 87° East 370 426 15,000 1,200 Climbing Chicago Center
07:56PM 41.9497 -86.8733 93° East 397 457 16,000 1,020 Climbing Chicago Center
07:57PM 41.9222 -86.7031 102° East 391 450 17,100 1,260 Climbing Chicago Center
07:58PM 41.9006 -86.5556 101° East 395 455 18,700 960 Climbing Chicago Center
07:59PM 41.8800 -86.4106 101° East 398 458 19,100 780 Climbing Chicago Center
08:00PM 41.8589 -86.2603 101° East 410 472 20,400 900 Climbing Chicago Center
08:01PM 41.8364 -86.1081 101° East 415 478 21,000 540 Climbing Chicago Center
08:02PM 41.8122 -85.9472 101° East 436 502 21,600 780 Climbing Chicago Center
08:03PM 41.7886 -85.7858 101° East 440 506 22,700 660 Climbing Chicago Center
08:04PM 41.7167 -85.6669 129° Southeast 429 494 23,000 120 Climbing Chicago Center
08:05PM 41.5919 -85.5831 153° Southeast 428 493 23,000 -120 Level Chicago Center
08:07PM 41.3925 -85.4475 153° Southeast 444 511 22,800 -420 Descending Indianapolis Center
08:08PM 41.3033 -85.3300 135° Southeast 453 521 21,800 -1,080 Descending Indianapolis Center
08:09PM 41.2136 -85.2117 135° Southeast 451 519 20,600 -1,500 Descending Indianapolis Center
08:10PM 41.1267 -85.0981 135° Southeast 440 506 18,800 -1,800 Descending Indianapolis Center
08:11PM 41.0431 -84.9917 136° Southeast 422 486 17,000 -1,620 Descending Indianapolis Center
08:12PM 40.9597 -84.8856 136° Southeast 412 474 15,500 -1,080 Descending Indianapolis Center
08:13PM 40.8639 -84.7625 136° Southeast 409 471 14,900 -300 Descending Indianapolis Center
08:14PM 40.7792 -84.6564 137° Southeast 414 476 14,900  Level Indianapolis Center
08:14PM 40.7703 -84.6453 137° Southeast 414 476 14,900 -300 Level Chicago Center
08:15PM 40.6936 -84.5500 137° Southeast 419 482 14,600 -660 Descending Indianapolis Center
08:15PM 40.6669 -84.5158 136° Southeast 417 480 14,200 -1,920 Descending Indianapolis Center
08:16PM 40.6114 -84.4456 136° Southeast 411 473 12,700 -1,980 Descending Indianapolis Center
08:16PM 40.5850 -84.4139 138° Southeast 406 467 12,200 -1,800 Descending Indianapolis Center
08:17PM 40.5278 -84.3533 141° Southeast 392 451 10,900 -1,440 Descending Indianapolis Center
08:17PM 40.5019 -84.3256 141° Southeast 381 438 10,800 -840 Descending Indianapolis Center
08:18PM 40.4442 -84.2631 141° Southeast 386 444 10,100 -720 Descending Indianapolis Center
08:18PM 40.4189 -84.2375 142° Southeast 383 441 10,100 -240 Level Indianapolis Center
08:19PM 40.3650 -84.1753 139° Southeast 373 429 9,900 -900 Descending Indianapolis Center
08:20PM 40.2978 -84.1150 146° Southeast 306 352 8,500 -1,680 Descending Indianapolis Center
08:21PM 40.2247 -84.0753 157° South 285 328 6,600 -1,980 Descending Indianapolis Center
08:21PM 40.1917 -84.0594 160° South 280 322 5,900 -1,560 Descending Indianapolis Center
08:22PM 40.1519 -84.0389 158° South 280 322 5,000 -1,320 Descending Indianapolis Center
08:23PM 40.0858 -84.0033 158° South 268 308 3,700 -1,200 Descending Indianapolis Center
08:24PM 40.0539 -83.9978 172° South 225 259 3,400 -600 Descending Indianapolis Center
08:24PM 40.0172 -84.0161 201° Southwest 237 273 3,100 -300 Descending Indianapolis Center
08:25PM 40.0069 -84.0353 235° Southwest 192 221 3,100 -120 Level Indianapolis Center
08:25PM 39.9872 -84.0711 234° Southwest 203 234 3,000  Descending Indianapolis Center
08:26PM 39.9753 -84.0939 236° Southwest 181 208 3,100 240 Climbing Indianapolis Center